createdAt,value
2023-02-05T00:01:15.872Z,5.40
2023-02-05T00:06:18.128Z,5.40
2023-02-05T00:11:23.081Z,5.40
2023-02-05T00:16:26.772Z,5.40
2023-02-05T00:21:28.962Z,5.40
2023-02-05T00:26:31.241Z,5.40
2023-02-05T00:31:37.442Z,5.40
2023-02-05T00:36:39.731Z,5.40
2023-02-05T00:41:42.022Z,5.40
2023-02-05T00:46:45.556Z,5.40
2023-02-05T00:51:47.754Z,5.40
2023-02-05T00:56:49.933Z,5.50
2023-02-05T01:01:53.581Z,5.50
2023-02-05T01:06:55.733Z,5.50
2023-02-05T01:11:59.101Z,5.50
2023-02-05T01:17:04.071Z,5.40
2023-02-05T01:22:07.016Z,5.40
2023-02-05T01:27:11.584Z,5.40
2023-02-05T01:32:15.183Z,5.40
2023-02-05T01:37:17.409Z,5.40
2023-02-05T01:42:22.989Z,5.40
2023-02-05T01:47:26.544Z,5.40
2023-02-05T01:52:28.762Z,5.40
2023-02-05T01:57:32.065Z,5.40
2023-02-05T02:02:37.438Z,5.40
2023-02-05T02:07:40.379Z,5.40
2023-02-05T02:12:45.676Z,5.40
2023-02-05T02:17:53.359Z,5.40
2023-02-05T02:23:10.976Z,5.40
2023-02-05T02:28:21.163Z,5.40
2023-02-05T02:33:28.863Z,5.30
2023-02-05T02:38:33.850Z,5.30
2023-02-05T02:43:44.875Z,5.30
2023-02-05T02:48:50.477Z,5.30
2023-02-05T02:53:57.696Z,5.30
2023-02-05T02:59:03.978Z,5.30
2023-02-05T03:04:11.738Z,5.30
2023-02-05T03:09:22.558Z,5.30
2023-02-05T03:14:26.216Z,5.30
2023-02-05T03:19:29.815Z,5.30
2023-02-05T03:24:32.236Z,5.30
2023-02-05T03:29:38.124Z,5.30
2023-02-05T03:34:57.718Z,5.40
2023-02-05T03:40:06.725Z,5.40
2023-02-05T03:45:28.742Z,5.40
2023-02-05T03:50:37.322Z,5.40
2023-02-05T03:55:45.200Z,5.40
2023-02-05T04:00:48.846Z,5.40
2023-02-05T04:05:51.004Z,5.30
2023-02-05T04:10:53.228Z,5.20
2023-02-05T04:15:56.972Z,5.20
2023-02-05T04:20:59.075Z,5.10
2023-02-05T04:26:01.134Z,5.10
2023-02-05T04:31:08.049Z,5.10
2023-02-05T04:36:10.539Z,5.10
2023-02-05T04:41:12.600Z,5.10
2023-02-05T04:46:16.188Z,5.10
2023-02-05T04:51:18.403Z,5.10
2023-02-05T04:56:20.579Z,5.20
2023-02-05T05:01:24.296Z,5.20
2023-02-05T05:06:26.478Z,5.10
2023-02-05T05:11:28.620Z,5.10
2023-02-05T05:16:32.143Z,5.10
2023-02-05T05:21:34.310Z,5.10
2023-02-05T05:26:36.416Z,5.10
2023-02-05T05:31:40.427Z,5.10
2023-02-05T05:36:42.548Z,5.10
2023-02-05T05:41:44.607Z,5.10
2023-02-05T05:46:48.117Z,5.20
2023-02-05T05:51:50.171Z,5.20
2023-02-05T05:56:52.438Z,5.10
2023-02-05T06:01:56.027Z,5.20
2023-02-05T06:06:58.232Z,5.20
2023-02-05T06:12:00.333Z,5.20
2023-02-05T06:17:03.868Z,5.20
2023-02-05T06:22:06.037Z,5.20
2023-02-05T06:27:08.174Z,5.20
2023-02-05T06:32:11.850Z,5.20
2023-02-05T06:37:14.065Z,5.30
2023-02-05T06:42:16.179Z,5.30
2023-02-05T06:47:19.725Z,5.30
2023-02-05T06:52:22.056Z,5.30
2023-02-05T06:57:24.244Z,5.30
2023-02-05T07:02:28.079Z,5.30
2023-02-05T07:07:30.199Z,5.30
2023-02-05T07:12:32.627Z,5.40
2023-02-05T07:17:36.321Z,5.30
2023-02-05T07:22:38.443Z,5.30
2023-02-05T07:27:40.623Z,5.40
2023-02-05T07:32:44.208Z,5.40
2023-02-05T07:37:46.743Z,5.40
2023-02-05T07:42:48.844Z,5.40
2023-02-05T07:47:52.377Z,5.40
2023-02-05T07:52:54.456Z,5.40
2023-02-05T07:57:56.600Z,5.40
2023-02-05T08:03:00.108Z,5.40
2023-02-05T08:08:05.465Z,5.40
2023-02-05T08:13:07.611Z,5.40
2023-02-05T08:18:11.205Z,5.40
2023-02-05T08:23:16.363Z,5.50
2023-02-05T08:28:18.580Z,5.50
2023-02-05T08:33:22.308Z,5.60
2023-02-05T08:38:24.462Z,5.70
2023-02-05T08:43:26.592Z,5.80
2023-02-05T08:48:30.139Z,5.90
2023-02-05T08:53:32.837Z,6.00
2023-02-05T08:58:34.994Z,6.20
2023-02-05T09:03:38.702Z,6.30
2023-02-05T09:08:41.099Z,6.50
2023-02-05T09:13:43.308Z,6.60
2023-02-05T09:18:46.858Z,6.70
2023-02-05T09:24:23.346Z,6.80
2023-02-05T09:36:09.018Z,6.90
2023-02-05T09:41:42.811Z,6.90
2023-02-05T09:47:16.037Z,6.90
2023-02-05T09:52:44.677Z,7.00
2023-02-05T09:57:50.974Z,7.00
2023-02-05T10:03:10.531Z,7.10
2023-02-05T10:08:36.300Z,7.30
2023-02-05T10:13:49.813Z,7.50
2023-02-05T10:19:24.937Z,7.80
2023-02-05T10:24:59.692Z,8.00
2023-02-05T10:30:18.080Z,8.30
2023-02-05T10:35:33.901Z,8.50
2023-02-05T10:40:49.696Z,8.70
2023-02-05T10:45:55.655Z,9.00
2023-02-05T10:51:15.595Z,9.20
2023-02-05T10:56:38.748Z,9.50
2023-02-05T11:02:24.188Z,9.80
2023-02-05T11:07:29.358Z,10.10
2023-02-05T11:12:48.000Z,10.30
2023-02-05T11:18:09.673Z,10.40
2023-02-05T11:23:29.496Z,10.50
2023-02-05T11:29:35.555Z,10.50
2023-02-05T11:34:52.377Z,10.70
2023-02-05T11:40:22.838Z,10.80
2023-02-05T11:45:32.364Z,11.00
2023-02-05T11:50:36.356Z,11.10
2023-02-05T11:55:47.999Z,11.10
2023-02-05T12:01:01.828Z,11.10
2023-02-05T12:06:21.555Z,11.20
2023-02-05T12:11:50.292Z,11.30
2023-02-05T12:17:16.544Z,11.40
2023-02-05T12:22:42.936Z,11.50
2023-02-05T12:28:16.287Z,11.60
2023-02-05T12:33:49.628Z,11.70
2023-02-05T12:39:09.473Z,11.70
2023-02-05T12:44:32.170Z,11.70
2023-02-05T12:49:53.053Z,11.70
2023-02-05T12:55:09.354Z,11.90
2023-02-05T13:00:17.857Z,12.10
2023-02-05T13:05:38.198Z,12.40
2023-02-05T13:10:59.196Z,12.60
2023-02-05T13:16:17.381Z,12.60
2023-02-05T13:21:32.066Z,12.50
2023-02-05T13:26:47.637Z,12.40
2023-02-05T13:31:57.094Z,12.30
2023-02-05T13:37:42.963Z,12.30
2023-02-05T13:43:17.215Z,12.10
2023-02-05T13:48:48.900Z,12.10
2023-02-05T13:54:50.005Z,12.00
2023-02-05T13:59:59.959Z,11.90
2023-02-05T14:05:07.283Z,11.80
2023-02-05T14:10:28.871Z,11.80
2023-02-05T14:15:42.983Z,11.70
2023-02-05T14:20:49.204Z,11.60
2023-02-05T14:26:11.809Z,11.60
2023-02-05T14:31:57.577Z,11.50
2023-02-05T14:37:04.493Z,11.50
2023-02-05T14:42:22.651Z,11.50
2023-02-05T14:47:30.834Z,11.50
2023-02-05T14:52:39.457Z,11.50
2023-02-05T14:57:49.736Z,11.50
2023-02-05T15:03:07.614Z,11.50
2023-02-05T15:08:16.551Z,11.50
2023-02-05T15:13:22.054Z,11.40
2023-02-05T15:18:30.609Z,11.30
2023-02-05T15:23:43.881Z,11.20
2023-02-05T15:29:03.838Z,11.10
2023-02-05T15:34:29.760Z,10.90
2023-02-05T15:39:41.605Z,10.80
2023-02-05T15:44:44.750Z,10.60
2023-02-05T15:49:50.642Z,10.40
2023-02-05T15:55:12.069Z,10.30
2023-02-05T16:00:22.398Z,10.20
2023-02-05T16:05:34.283Z,10.00
2023-02-05T16:10:40.491Z,9.90
2023-02-05T16:15:51.101Z,9.80
2023-02-05T16:20:58.129Z,9.60
2023-02-05T16:26:06.283Z,9.50
2023-02-05T16:31:15.887Z,9.40
2023-02-05T16:36:22.701Z,9.20
2023-02-05T16:41:30.393Z,9.10
2023-02-05T16:46:34.986Z,9.10
2023-02-05T16:51:54.648Z,9.00
2023-02-05T16:57:12.109Z,8.90
2023-02-05T17:02:32.027Z,8.70
2023-02-05T17:07:36.720Z,8.70
2023-02-05T17:12:54.971Z,8.60
2023-02-05T17:17:59.423Z,8.60
2023-02-05T17:23:15.856Z,8.40
2023-02-05T17:28:28.422Z,8.30
2023-02-05T17:33:39.020Z,8.30
2023-02-05T17:38:42.417Z,8.20
2023-02-05T17:43:49.594Z,8.20
2023-02-05T17:48:52.460Z,8.10
2023-02-05T17:53:59.219Z,8.00
2023-02-05T17:59:10.673Z,8.00
2023-02-05T18:04:16.082Z,7.90
2023-02-05T18:09:28.901Z,7.80
2023-02-05T18:14:34.384Z,7.70
2023-02-05T18:19:39.992Z,7.60
2023-02-05T18:24:46.106Z,7.60
2023-02-05T18:29:56.260Z,7.50
2023-02-05T18:35:05.619Z,7.40
2023-02-05T18:46:43.368Z,7.40
2023-02-05T18:51:46.926Z,7.40
2023-02-05T18:56:49.106Z,7.40
2023-02-05T19:01:51.765Z,7.40
2023-02-05T19:06:55.309Z,7.40
2023-02-05T19:11:57.625Z,7.40
2023-02-05T19:16:59.712Z,7.40
2023-02-05T19:22:03.438Z,7.40
2023-02-05T19:27:05.528Z,7.40
2023-02-05T19:32:08.420Z,7.50
2023-02-05T19:37:12.421Z,7.50
2023-02-05T19:42:14.634Z,7.50
2023-02-05T19:47:16.724Z,7.40
2023-02-05T19:52:20.485Z,7.40
2023-02-05T19:57:22.628Z,7.40
2023-02-05T20:02:25.530Z,7.30
2023-02-05T20:07:30.828Z,7.30
2023-02-05T20:12:32.921Z,7.20
2023-02-05T20:17:35.029Z,7.10
2023-02-05T20:22:38.555Z,7.00
2023-02-05T20:27:40.678Z,6.90
2023-02-05T20:32:45.607Z,6.90
2023-02-05T20:37:49.132Z,6.80
2023-02-05T20:42:51.270Z,6.80
2023-02-05T20:47:53.397Z,6.70
2023-02-05T20:52:56.961Z,6.70
2023-02-05T20:57:59.160Z,6.70
2023-02-05T21:03:01.379Z,6.70
2023-02-05T21:08:05.105Z,6.70
2023-02-05T21:13:07.262Z,6.70
2023-02-05T21:18:09.462Z,6.70
2023-02-05T21:23:12.966Z,6.60
2023-02-05T21:28:17.040Z,6.60
2023-02-05T21:33:22.275Z,6.60
2023-02-05T21:38:27.602Z,6.60
2023-02-05T21:43:31.256Z,6.60
2023-02-05T21:48:33.639Z,6.60
2023-02-05T21:53:37.737Z,6.50
2023-02-05T21:58:41.204Z,6.60
2023-02-05T22:03:48.221Z,6.50
2023-02-05T22:08:52.739Z,6.50
2023-02-05T22:13:56.292Z,6.50
2023-02-05T22:19:00.073Z,6.40
2023-02-05T22:24:05.373Z,6.40
2023-02-05T22:29:10.656Z,6.30
2023-02-05T22:34:13.291Z,6.30
2023-02-05T22:39:16.977Z,6.30
2023-02-05T22:44:19.065Z,6.30
2023-02-05T22:49:21.203Z,6.20
2023-02-05T22:54:24.917Z,6.10
2023-02-05T22:59:27.094Z,6.10
2023-02-05T23:04:29.198Z,6.00
2023-02-05T23:09:34.449Z,6.00
2023-02-05T23:14:36.759Z,5.90
2023-02-05T23:19:38.880Z,5.90
2023-02-05T23:24:42.476Z,5.90
2023-02-05T23:29:44.641Z,5.80
2023-02-05T23:34:46.745Z,5.80
2023-02-05T23:39:50.263Z,5.80
2023-02-05T23:44:52.333Z,5.70
2023-02-05T23:49:54.437Z,5.70
2023-02-05T23:54:57.954Z,5.70
